• Join FlightAware (Why Join?)
  • Login
  • US Flag 
05:45AM EDT


 

Airport Tracker/Info


-or-


 

Live Flight TrackerFlight Track Log ✈ JZA8618 ✈ 21-May-2013 ✈ KATL - CYYZ

Flight Track Log - Related Links

Times and Time Zones

All times are in EDT time to prevent confusion due to time zone crossing. See the JZA8618 flight status page for this flight to view local times or setup timezone preferences in your user account.

Time Position Orientation Groundspeed Altitude Reporting Facility
EDT Latitude Longitude Course Direction KTS MPH feet Rate Location/Type
06:31AM 33.6500 -84.5000 11° North 207 238 3,200  Level Atlanta TRACON
06:32AM 33.6667 -84.5833 284° West 237 273 6,300 2,220 Climbing Atlanta TRACON
06:33AM 33.9391 -84.2667 North  Level FlightAware Approximate
06:33AM 33.7500 -84.5667 North 295 339 8,100  Level Atlanta TRACON
06:34AM 34.0641 -84.2667 North  Level FlightAware Approximate
06:35AM 34.1890 -84.2667 North  Level FlightAware Approximate
06:35AM 33.9208 -84.4744 24° Northeast 312 359 12,100  Level Atlanta Center
06:36AM 34.3134 -84.2595 11° North  Level FlightAware Approximate
06:36AM 34.0211 -84.4222 23° Northeast 363 418 13,600  Level Atlanta Center
06:37AM 34.1153 -84.3700 25° Northeast 370 426 15,800 1,920 Climbing Atlanta Center
06:38AM 34.2239 -84.3150 23° Northeast 396 456 17,500 1,500 Climbing Atlanta Center
06:39AM 34.3347 -84.2728 17° North 406 467 18,900 1,500 Climbing Atlanta Center
06:40AM 34.4619 -84.2403 12° North 411 473 20,600 1,500 Climbing Atlanta Center
06:41AM 34.5808 -84.2128 11° North 424 488 22,000 1,620 Climbing Atlanta Center
06:42AM 34.6978 -84.1853 11° North 432 497 23,900 1,860 Climbing Atlanta Center
06:43AM 34.8147 -84.1603 10° North 426 490 25,800 1,320 Climbing Atlanta Center
06:44AM 34.9336 -84.1300 12° North 426 490 26,600 600 Climbing Atlanta Center
06:45AM 35.0589 -84.0997 11° North 438 504 27,000 780 Climbing Atlanta Center
06:46AM 35.1883 -84.0692 11° North 458 527 28,200 1,200 Climbing Atlanta Center
06:47AM 35.3178 -84.0389 11° North 465 535 29,500 1,500 Climbing Atlanta Center
06:48AM 35.4450 -84.0056 12° North 465 535 31,200 1,500 Climbing Atlanta Center
06:49AM 35.5658 -83.9800 10° North 458 527 32,600 1,260 Climbing Atlanta Center
06:50AM 35.6869 -83.9492 12° North 448 516 33,800 960 Climbing Atlanta Center
06:51AM 35.8078 -83.9183 12° North 443 510 34,600 1,560 Climbing Atlanta Center
06:52AM 35.9267 -83.8822 14° North 443 510 37,000 1,200 Climbing Atlanta Center
06:53AM 36.0289 -83.8181 27° Northeast 429 494 37,000  Level Atlanta Center
06:54AM 36.1281 -83.7522 28° Northeast 424 488 37,000 -60 Level Indianapolis Center
06:55AM 36.2533 -83.6733 27° Northeast 422 486 36,900  Descending Indianapolis Center
06:56AM 36.3578 -83.6064 27° Northeast 422 486 37,000  Climbing Indianapolis Center
06:57AM 36.4622 -83.5400 27° Northeast 422 486 37,000  Level Indianapolis Center
06:58AM 36.5583 -83.4806 26° Northeast 426 490 37,000  Level Indianapolis Center
06:59AM 36.6614 -83.4064 30° Northeast 427 491 37,000  Level Indianapolis Center
07:00AM 36.7567 -83.3158 37° Northeast 427 491 37,000  Level Indianapolis Center
07:01AM 36.8528 -83.2258 37° Northeast 428 493 37,000  Level Indianapolis Center
07:02AM 36.9506 -83.1336 37° Northeast 436 502 37,000  Level Indianapolis Center
07:03AM 37.0508 -83.0414 36° Northeast 440 506 37,000  Level Indianapolis Center
07:04AM 37.1492 -82.9456 38° Northeast 440 506 37,000  Level Indianapolis Center
07:06AM 37.2458 -82.8511 38° Northeast 438 504 37,000  Level Indianapolis Center
07:07AM 37.3436 -82.7581 37° Northeast 439 505 37,000  Level Indianapolis Center
07:08AM 37.4569 -82.6494 37° Northeast 438 504 37,000  Level Indianapolis Center
07:09AM 37.5517 -82.5558 38° Northeast 433 498 37,000  Level Indianapolis Center
07:10AM 37.6478 -82.4622 38° Northeast 436 502 37,000  Level Indianapolis Center
07:11AM 37.7422 -82.3694 38° Northeast 430 495 37,000  Level Indianapolis Center
07:12AM 37.8364 -82.2772 38° Northeast 428 493 37,000  Level Indianapolis Center
07:13AM 37.9303 -82.1858 38° Northeast 426 490 37,000  Level Indianapolis Center
07:14AM 38.0194 -82.0986 38° Northeast 425 489 37,000  Level Indianapolis Center
07:15AM 38.1125 -82.0072 38° Northeast 422 486 37,000  Level Indianapolis Center
07:16AM 38.2039 -81.9161 38° Northeast 419 482 37,000  Level Indianapolis Center
07:17AM 38.2956 -81.8244 38° Northeast 419 482 37,000  Level Indianapolis Center
07:18AM 38.3894 -81.7358 36° Northeast 420 483 37,000  Level Indianapolis Center
07:19AM 38.5058 -81.6356 34° Northeast 421 484 37,000  Level Indianapolis Center
07:20AM 38.6053 -81.5492 34° Northeast 421 484 37,000  Level Indianapolis Center
07:21AM 38.7036 -81.4633 34° Northeast 425 489 37,000  Level Indianapolis Center
07:22AM 38.7928 -81.3875 34° Northeast 429 494 37,000  Level Indianapolis Center
07:23AM 38.8908 -81.3017 34° Northeast 426 490 37,000  Level Indianapolis Center
07:24AM 38.9886 -81.2164 34° Northeast 425 489 37,000  Level Indianapolis Center
07:25AM 39.0861 -81.1306 34° Northeast 423 487 37,000  Level Indianapolis Center
07:26AM 39.2033 -81.0272 34° Northeast 426 490 37,000  Level Indianapolis Center
07:27AM 39.3003 -80.9411 34° Northeast 424 488 37,000  Level Indianapolis Center
07:28AM 39.3967 -80.8558 34° Northeast 420 483 37,000  Level Indianapolis Center
07:29AM 39.4933 -80.7694 35° Northeast 422 486 37,000  Level Indianapolis Center
07:30AM 39.5908 -80.6831 34° Northeast 424 488 37,000  Level Indianapolis Center
07:31AM 39.6889 -80.5967 34° Northeast 426 490 37,000  Level Indianapolis Center
07:32AM 39.7975 -80.5533 17° North 409 471 37,000  Level Indianapolis Center
07:33AM 39.9233 -80.5156 13° North 404 465 37,000  Level Cleveland Center
07:34AM 40.0339 -80.4772 15° North 404 465 37,000  Level Cleveland Center
07:35AM 40.1442 -80.4419 14° North 404 465 37,000  Level Cleveland Center
07:36AM 40.2567 -80.4036 15° North 404 465 37,000  Level Cleveland Center
07:37AM 40.3672 -80.3678 14° North 409 471 37,000 -60 Level Cleveland Center
07:38AM 40.4756 -80.3292 15° North 409 471 36,900 -600 Descending Cleveland Center
07:39AM 40.5922 -80.2933 13° North 415 478 35,800 -960 Descending Cleveland Center
07:40AM 40.7089 -80.2517 15° North 421 484 35,000 -420 Descending Cleveland Center
07:41AM 40.8233 -80.2128 14° North 421 484 35,000 -300 Level Cleveland Center
07:42AM 40.9503 -80.1433 22° Northeast 426 490 34,500 -540 Descending Cleveland Center
07:43AM 41.0647 -80.0792 23° Northeast 438 504 34,000 -300 Descending Cleveland Center
07:44AM 41.1789 -80.0175 22° Northeast 438 504 34,000  Level Cleveland Center
07:45AM 41.2767 -79.9642 22° Northeast 432 497 34,000  Level Cleveland Center
07:46AM 41.3889 -79.9022 22° Northeast 432 497 34,000  Level Cleveland Center
07:47AM 41.5011 -79.8400 23° Northeast 432 497 34,000 -300 Level Cleveland Center
07:48AM 41.6111 -79.7778 23° Northeast 432 497 33,400 -960 Descending Cleveland Center
07:49AM 41.7253 -79.7122 23° Northeast 432 497 32,100 -1,320 Descending Cleveland Center
07:50AM 41.8436 -79.6467 22° Northeast 441 507 30,800 -1,260 Descending Cleveland Center
07:51AM 41.9578 -79.5808 23° Northeast 441 507 29,600 -1,260 Descending Cleveland Center
07:52AM 42.0822 -79.5117 22° Northeast 454 522 28,300 -900 Descending Cleveland Center
07:53AM 42.2044 -79.4422 23° Northeast 465 535 27,900 -840 Descending Cleveland Center
07:54AM 42.3206 -79.3756 23° Northeast 465 535 26,700 -1,200 Descending Cleveland Center
07:55AM 42.4344 -79.3089 23° Northeast 453 521 25,500 -1,260 Descending Cleveland Center
07:56AM 42.5739 -79.2806 North 453 521 24,200 -1,260 Descending Cleveland Center
07:57AM 42.7011 -79.2950 355° North 447 514 23,000 -1,200 Descending Cleveland Center
07:58AM 42.8261 -79.3067 356° North 447 514 21,800 -960 Descending Cleveland Center
07:59AM 42.9367 -79.3128 358° North 442 509 21,100 -1,680 Descending Cleveland Center
07:59AM 42.9833 -79.2833 25° Northeast 440 506 19,600 -3,540 Descending Toronto Center
08:00AM 43.0833 -79.3167 346° North 420 483 16,500 -2,640 Descending Toronto Center
08:01AM 43.2000 -79.3333 354° North 400 460 14,400 -1,500 Descending Toronto Center
08:02AM 43.3000 -79.3333 360° North 350 403 13,500 -1,260 Descending Toronto Center
08:03AM 43.3667 -79.3833 331° Northwest 310 357 11,900 -1,740 Descending Toronto Center
08:04AM 43.4500 -79.4333 336° Northwest 300 345 10,000 -1,500 Descending Toronto Center
08:05AM 43.5167 -79.4667 340° North 290 334 9,000 -1,080 Descending Toronto Center
08:06AM 43.5833 -79.5167 331° Northwest 260 299 7,900 -1,200 Descending Toronto Center
08:07AM 43.6333 -79.4500 44° Northeast 260 299 6,600 -1,200 Descending Toronto Center
08:08AM 43.6833 -79.3833 44° Northeast 250 288 5,600 -1,260 Descending Toronto Center
08:09AM 43.7333 -79.3167 44° Northeast 240 276 4,100 -780 Descending Toronto Center
08:10AM 43.7833 -79.3333 346° North 210 242 4,100 -180 Level Toronto Center
08:11AM 43.7833 -79.4000 270° West 190 219 3,800 -600 Descending Toronto Center
08:12AM 43.7500 -79.4500 227° Southwest 190 219 3,000 -900 Descending Toronto Center
08:13AM 43.7167 -79.5000 227° Southwest 170 196 2,000 -900 Descending Toronto Center
08:14AM 43.6833 -79.5333 216° Southwest 150 173 1,300 -720 Descending Toronto Center
08:15AM 43.6667 -79.5833 245° Southwest 140 161 600 -360 Descending Toronto Center
08:16AM 43.6500 -79.5833 180° South 40 46 600  Level Toronto Center
08:17AM 43.6500 -79.6167 270° West 10 12 600  Level Toronto Center